Time;durP1;ratioP1;P1;durP2;ratioP2;P2;SDS_P1;SDS_P2;PMS_P1;PMS_P2;Temp;Humidity;BMP_temperature;BMP_pressure;BME280_temperature;BME280_humidity;BME280_pressure;Samples;Min_cycle;Max_cycle;Signal;HPM_P1;HPM_P2
2023/09/18 00:01:19;;;;;;;3.53;3.22;;;20.20;87.90;;;;;;5034290;28;20136;-31
2023/09/18 00:03:46;;;;;;;3.78;3.08;;;20.50;88.20;;;;;;5014540;28;20088;-32
2023/09/18 00:06:13;;;;;;;3.65;3.35;;;20.40;88.20;;;;;;5017323;28;20132;-32
2023/09/18 00:08:40;;;;;;;3.30;3.00;;;;;;;;;;5033744;28;20137;-31
2023/09/18 00:11:07;;;;;;;3.38;3.08;;;;;;;;;;5034400;28;20064;-32
2023/09/18 00:13:34;;;;;;;3.55;3.25;;;21.10;89.00;;;;;;5034130;28;20057;-32
2023/09/18 00:16:01;;;;;;;3.42;3.05;;;20.20;87.80;;;;;;5033796;28;20124;-32
2023/09/18 00:18:29;;;;;;;3.40;3.10;;;20.30;71.30;;;;;;5033822;28;20077;-32
2023/09/18 00:20:56;;;;;;;3.20;2.90;;;;;;;;;;5033940;28;20128;-31
2023/09/18 00:23:23;;;;;;;3.67;3.38;;;;;;;;;;5034029;28;20046;-32
2023/09/18 00:25:50;;;;;;;3.40;3.10;;;;;;;;;;5033882;28;20132;-30
2023/09/18 00:28:17;;;;;;;3.40;3.10;;;20.70;88.80;;;;;;5033337;28;20124;-32
2023/09/18 00:30:44;;;;;;;3.47;3.17;;;;;;;;;;5033849;28;20057;-30
2023/09/18 00:33:11;;;;;;;3.63;3.28;;;19.90;87.60;;;;;;5033656;28;20481;-32
2023/09/18 00:35:39;;;;;;;3.40;3.08;;;20.20;88.20;;;;;;5033625;28;20132;-32
2023/09/18 00:38:07;;;;;;;4.30;3.10;;;20.40;88.60;;;;;;5032483;28;20473;-32
2023/09/18 00:40:33;;;;;;;3.40;3.10;;;20.40;87.90;;;;;;5033890;28;20049;-32
2023/09/18 00:43:01;;;;;;;3.60;3.30;;;;;;;;;;5033501;28;20140;-31
2023/09/18 00:45:27;;;;;;;3.72;3.40;;;20.20;88.50;;;;;;5033477;28;20132;-32
2023/09/18 00:47:54;;;;;;;3.60;3.30;;;20.40;88.70;;;;;;5032917;28;20132;-32
2023/09/18 00:50:21;;;;;;;3.33;3.03;;;20.30;86.60;;;;;;5033379;28;20136;-32
2023/09/18 00:52:49;;;;;;;3.55;3.25;;;21.10;72.50;;;;;;5033645;28;20050;-31
2023/09/18 00:55:16;;;;;;;3.90;3.60;;;19.20;87.60;;;;;;5036438;28;20128;-31
2023/09/18 00:57:43;;;;;;;3.70;3.33;;;;;;;;;;5051583;28;20460;-30
2023/09/18 01:00:11;;;;;;;3.85;3.45;;;20.30;71.20;;;;;;5033322;28;20159;-31
2023/09/18 01:02:38;;;;;;;3.80;3.50;;;20.60;88.60;;;;;;5033032;28;20056;-31
2023/09/18 01:05:05;;;;;;;4.15;3.28;;;;;;;;;;5032984;28;20088;-30
2023/09/18 01:07:32;;;;;;;4.97;3.20;;;19.80;88.10;;;;;;5032616;28;20132;-31
2023/09/18 01:10:00;;;;;;;4.45;3.45;;;20.50;88.10;;;;;;5033326;28;20135;-32
2023/09/18 01:12:31;;;;;;;3.63;3.13;;;19.70;72.10;;;;;;5032966;28;20562;-32
2023/09/18 01:15:00;;;;;;;3.63;3.20;;;19.70;88.00;;;;;;5032870;28;20125;-31
2023/09/18 01:17:27;;;;;;;3.63;3.33;;;19.90;72.20;;;;;;5032718;28;20128;-32
2023/09/18 01:19:54;;;;;;;3.10;2.80;;;;;;;;;;5032908;28;20483;-31
2023/09/18 01:22:21;;;;;;;4.30;3.40;;;19.70;88.20;;;;;;5033039;28;20132;-32
2023/09/18 01:24:49;;;;;;;3.75;3.45;;;19.10;78.40;;;;;;5032609;28;20053;-31
2023/09/18 01:27:17;;;;;;;4.07;3.50;;;19.90;77.10;;;;;;5032224;28;20132;-31
2023/09/18 01:29:44;;;;;;;4.28;3.88;;;20.70;80.50;;;;;;5032444;28;20049;-31
2023/09/18 01:32:11;;;;;;;4.10;3.70;;;20.80;85.60;;;;;;5032222;28;20132;-31
2023/09/18 01:34:41;;;;;;;3.92;3.42;;;20.00;88.40;;;;;;5032552;28;20136;-32
2023/09/18 01:37:08;;;;;;;3.60;3.30;;;20.00;87.70;;;;;;5031728;28;20060;-31
2023/09/18 01:39:35;;;;;;;3.92;3.63;;;;;;;;;;5032646;28;20060;-31
2023/09/18 01:42:05;;;;;;;3.72;3.28;;;20.40;87.80;;;;;;5032195;28;20128;-31
2023/09/18 01:44:31;;;;;;;4.15;3.75;;;19.30;87.60;;;;;;5032028;28;20057;-31
2023/09/18 01:46:59;;;;;;;3.58;3.28;;;20.20;71.20;;;;;;5032264;28;20431;-30
2023/09/18 01:49:29;;;;;;;3.78;3.38;;;20.10;88.40;;;;;;5032511;28;20046;-31
2023/09/18 01:51:56;;;;;;;3.95;3.42;;;20.50;87.90;;;;;;5032018;28;20133;-32
2023/09/18 01:54:23;;;;;;;3.65;3.35;;;19.90;83.40;;;;;;5032181;28;20570;-31
2023/09/18 01:56:50;;;;;;;4.00;3.60;;;20.20;88.10;;;;;;5047660;28;20124;-31
2023/09/18 01:59:18;;;;;;;3.78;3.47;;;20.20;71.10;;;;;;5052569;28;20132;-30
2023/09/18 02:01:45;;;;;;;4.32;3.65;;;;;;;;;;5052101;28;20127;-31
2023/09/18 02:04:12;;;;;;;4.00;3.60;;;20.00;88.30;;;;;;5051884;28;20128;-31
2023/09/18 02:06:39;;;;;;;3.60;3.30;;;20.60;88.00;;;;;;5034077;28;20136;-32
2023/09/18 02:09:07;;;;;;;3.70;3.40;;;19.80;88.30;;;;;;5032005;28;20058;-32
2023/09/18 02:11:34;;;;;;;3.80;3.50;;;20.20;87.60;;;;;;5030892;28;20056;-32
2023/09/18 02:14:04;;;;;;;3.30;3.00;;;;;;;;;;5032276;28;20467;-30
2023/09/18 02:16:33;;;;;;;3.50;3.20;;;20.20;71.10;;;;;;5031508;28;20060;-31
2023/09/18 02:19:00;;;;;;;3.83;3.40;;;20.40;75.30;;;;;;5031987;28;20132;-31
2023/09/18 02:21:26;;;;;;;4.28;3.88;;;19.90;87.60;;;;;;5031961;28;20148;-31
2023/09/18 02:23:54;;;;;;;4.10;3.70;;;;;;;;;;5031624;28;20060;-31
2023/09/18 02:26:21;;;;;;;4.63;3.65;;;21.20;86.00;;;;;;5031752;28;20140;-32
2023/09/18 02:28:48;;;;;;;4.13;3.67;;;;;;;;;;5031733;28;20133;-30
2023/09/18 02:31:14;;;;;;;4.00;3.60;;;20.10;88.30;;;;;;5031560;28;20124;-31
2023/09/18 02:33:43;;;;;;;3.88;3.53;;;20.40;76.10;;;;;;5031900;28;20107;-31
2023/09/18 02:36:10;;;;;;;3.65;3.35;;;;;;;;;;5031054;28;20473;-31
2023/09/18 02:38:37;;;;;;;3.90;3.50;;;20.30;87.70;;;;;;5031539;28;20128;-31
2023/09/18 02:41:04;;;;;;;3.50;3.20;;;;;;;;;;5031748;28;20053;-30
2023/09/18 02:43:31;;;;;;;3.63;3.33;;;20.20;88.40;;;;;;5031620;28;20137;-31
2023/09/18 02:45:57;;;;;;;3.60;3.30;;;19.50;88.00;;;;;;5031092;28;20136;-32
2023/09/18 02:48:24;;;;;;;3.60;3.30;;;;;;;;;;5031572;28;20140;-31
2023/09/18 02:50:52;;;;;;;4.07;3.42;;;20.30;88.40;;;;;;5035655;28;20133;-31
2023/09/18 02:53:20;;;;;;;3.97;3.58;;;19.20;87.10;;;;;;5035773;28;20052;-31
2023/09/18 02:55:47;;;;;;;3.70;3.40;;;20.20;71.10;;;;;;5042738;28;20128;-31
2023/09/18 02:58:14;;;;;;;3.72;3.42;;;20.30;83.70;;;;;;5055237;28;20135;-31
2023/09/18 03:00:42;;;;;;;3.53;3.22;;;19.00;71.30;;;;;;5055670;28;20132;-31
2023/09/18 03:03:09;;;;;;;3.97;3.53;;;;;;;;;;5055431;28;20041;-31
2023/09/18 03:05:37;;;;;;;3.42;3.10;;;;;;;;;;5047226;28;20701;-32
2023/09/18 03:08:05;;;;;;;4.05;3.67;;;20.20;88.00;;;;;;5034895;28;20482;-31
2023/09/18 03:10:33;;;;;;;3.78;3.47;;;20.00;87.60;;;;;;5035478;28;20081;-31
2023/09/18 03:13:00;;;;;;;3.90;3.50;;;20.10;87.60;;;;;;5035419;28;20133;-31
2023/09/18 03:15:27;;;;;;;4.20;3.80;;;19.60;77.10;;;;;;5034974;28;20045;-31
2023/09/18 03:17:54;;;;;;;3.92;3.45;;;20.80;88.20;;;;;;5035010;28;20582;-31
2023/09/18 03:20:23;;;;;;;3.67;3.38;;;20.50;88.00;;;;;;5035220;28;20145;-31
2023/09/18 03:22:50;;;;;;;3.90;3.50;;;20.30;73.90;;;;;;5034758;28;20482;-31
2023/09/18 03:25:18;;;;;;;3.42;3.13;;;20.90;88.10;;;;;;5034940;28;20152;-31
2023/09/18 03:27:44;;;;;;;4.50;3.17;;;19.70;87.80;;;;;;5033658;28;20133;-32
2023/09/18 03:30:15;;;;;;;4.50;3.70;;;19.60;88.10;;;;;;5033736;28;20144;-31
2023/09/18 03:32:42;;;;;;;3.72;3.35;;;20.40;80.20;;;;;;5033503;28;20049;-31
2023/09/18 03:35:15;;;;;;;3.53;3.22;;;20.30;88.00;;;;;;5032831;28;20121;-32
2023/09/18 03:37:42;;;;;;;3.88;3.40;;;;;;;;;;5031186;28;20045;-30
2023/09/18 03:40:10;;;;;;;4.13;3.65;;;20.30;87.70;;;;;;5033448;28;20056;-31
2023/09/18 03:42:38;;;;;;;3.85;3.55;;;20.10;71.00;;;;;;5033059;28;20128;-32
2023/09/18 03:45:07;;;;;;;4.40;3.50;;;20.10;71.00;;;;;;5030424;28;20133;-31
2023/09/18 03:47:34;;;;;;;3.88;3.40;;;20.20;87.70;;;;;;5032967;28;20129;-32
2023/09/18 03:50:01;;;;;;;3.95;3.55;;;21.10;88.20;;;;;;5033238;28;20124;-31
2023/09/18 03:52:28;;;;;;;3.92;3.40;;;;;;;;;;5033055;28;20097;-30
2023/09/18 03:54:55;;;;;;;3.95;3.55;;;20.30;88.40;;;;;;5033309;28;20565;-31
2023/09/18 03:57:22;;;;;;;4.10;3.45;;;19.70;88.10;;;;;;5053157;28;20132;-31
2023/09/18 03:59:50;;;;;;;3.55;3.25;;;20.10;71.00;;;;;;5052882;28;20132;-31
2023/09/18 04:02:17;;;;;;;3.72;3.33;;;;;;;;;;5053423;28;20132;-31
2023/09/18 04:04:43;;;;;;;3.80;3.40;;;20.50;87.80;;;;;;5038895;28;20128;-31
2023/09/18 04:07:11;;;;;;;3.55;3.25;;;19.60;87.30;;;;;;5032563;28;20492;-31
2023/09/18 04:09:39;;;;;;;3.53;3.22;;;20.60;88.60;;;;;;5032749;28;20534;-31
2023/09/18 04:12:07;;;;;;;3.53;3.22;;;20.10;71.00;;;;;;5032643;28;20045;-31
2023/09/18 04:14:33;;;;;;;3.45;3.15;;;19.80;87.40;;;;;;5032671;28;20124;-31
2023/09/18 04:17:01;;;;;;;3.95;3.55;;;20.60;87.90;;;;;;5032464;28;20117;-31
2023/09/18 04:19:28;;;;;;;3.72;3.42;;;20.60;87.90;;;;;;5032863;28;20410;-31
2023/09/18 04:21:55;;;;;;;3.95;3.55;;;;;;;;;;5032554;28;20600;-31
2023/09/18 04:24:22;;;;;;;3.83;3.42;;;20.30;75.00;;;;;;5032729;28;20915;-31
2023/09/18 04:26:50;;;;;;;5.63;3.50;;;;;;;;;;4996515;28;1046819;-30
2023/09/18 04:29:17;;;;;;;3.72;3.42;;;;;;;;;;5033921;28;20052;-30
2023/09/18 04:31:44;;;;;;;3.63;3.33;;;20.00;87.80;;;;;;5033957;28;20144;-31
2023/09/18 04:34:12;;;;;;;4.07;3.28;;;20.10;70.90;;;;;;5033751;28;20052;-30
2023/09/18 04:36:39;;;;;;;3.22;2.92;;;;;;;;;;5033186;28;20496;-29
2023/09/18 04:39:06;;;;;;;4.45;3.40;;;19.80;87.70;;;;;;5033542;28;20148;-31
2023/09/18 04:41:33;;;;;;;4.78;3.58;;;20.20;88.40;;;;;;5033538;28;20128;-31
2023/09/18 04:44:00;;;;;;;3.47;3.15;;;20.20;83.00;;;;;;5033285;28;20077;-31
2023/09/18 04:46:27;;;;;;;3.90;3.50;;;20.00;87.50;;;;;;5033543;28;20128;-32
2023/09/18 04:48:53;;;;;;;3.58;3.28;;;19.80;88.20;;;;;;5033174;28;20140;-31
2023/09/18 04:51:21;;;;;;;3.67;3.20;;;19.20;72.90;;;;;;5033495;28;20143;-31
2023/09/18 04:53:48;;;;;;;3.50;3.20;;;19.30;73.90;;;;;;5033142;28;20133;-32
2023/09/18 04:56:15;;;;;;;3.38;3.08;;;20.60;88.50;;;;;;5044591;28;20123;-32
2023/09/18 04:58:42;;;;;;;3.42;3.13;;;20.50;88.20;;;;;;5053049;28;20132;-32
2023/09/18 05:01:11;;;;;;;3.80;3.50;;;19.90;76.50;;;;;;5053365;28;20107;-32
2023/09/18 05:03:37;;;;;;;4.00;3.60;;;20.00;82.90;;;;;;5049212;28;20041;-32
2023/09/18 05:06:04;;;;;;;3.63;3.13;;;;;;;;;;5033078;28;20243;-30
2023/09/18 05:08:32;;;;;;;4.03;3.63;;;20.10;87.60;;;;;;5032938;28;20125;-32
2023/09/18 05:11:00;;;;;;;4.30;3.53;;;;;;;;;;5032718;28;20132;-32
2023/09/18 05:13:27;;;;;;;3.88;3.58;;;19.80;87.40;;;;;;5032461;28;20056;-32
2023/09/18 05:15:54;;;;;;;4.55;3.30;;;20.70;88.30;;;;;;5033186;28;20053;-32
2023/09/18 05:18:21;;;;;;;3.78;3.35;;;;;;;;;;5032678;28;20136;-31
2023/09/18 05:20:48;;;;;;;3.92;3.58;;;20.60;88.70;;;;;;5032846;28;20049;-32
2023/09/18 05:23:15;;;;;;;4.30;3.70;;;;;;;;;;5034848;28;20132;-30
2023/09/18 05:25:44;;;;;;;4.60;3.20;;;20.00;73.90;;;;;;5032553;28;20503;-32
2023/09/18 05:28:10;;;;;;;3.63;3.30;;;20.40;87.90;;;;;;5032612;28;20077;-32
2023/09/18 05:30:38;;;;;;;4.35;3.45;;;20.00;77.70;;;;;;5032699;28;20049;-32
2023/09/18 05:33:05;;;;;;;3.55;2.97;;;20.20;87.80;;;;;;5033154;28;20046;-32
2023/09/18 05:35:32;;;;;;;3.60;3.30;;;19.00;87.10;;;;;;5032523;28;20100;-32
2023/09/18 05:37:59;;;;;;;3.35;3.05;;;20.80;78.20;;;;;;5031702;28;20125;-31
2023/09/18 05:40:26;;;;;;;3.40;3.10;;;18.90;87.30;;;;;;5032319;28;20049;-32
2023/09/18 05:42:54;;;;;;;3.58;3.28;;;20.40;88.60;;;;;;5032512;28;20057;-32
2023/09/18 05:45:22;;;;;;;3.55;3.25;;;;;;;;;;5032271;28;20140;-31
2023/09/18 05:47:49;;;;;;;3.45;2.90;;;20.30;87.80;;;;;;5030922;28;20132;-29
2023/09/18 05:50:16;;;;;;;3.28;2.92;;;;;;;;;;5032313;28;20080;-31
2023/09/18 05:52:43;;;;;;;3.45;3.00;;;20.00;87.60;;;;;;5026266;28;20060;-29
2023/09/18 05:55:10;;;;;;;3.42;3.13;;;17.40;69.50;;;;;;5027903;28;20557;-30
2023/09/18 05:57:37;;;;;;;3.20;2.90;;;20.20;88.40;;;;;;5022428;28;20128;-30
2023/09/18 06:00:06;;;;;;;3.40;2.95;;;19.20;87.20;;;;;;5030640;28;20128;-28
2023/09/18 06:02:32;;;;;;;3.50;3.20;;;20.50;88.70;;;;;;5032178;28;20132;-29
2023/09/18 06:05:00;;;;;;;3.22;2.92;;;20.10;87.80;;;;;;5031333;28;20128;-29
2023/09/18 06:07:27;;;;;;;3.10;2.70;;;20.10;76.10;;;;;;5032052;28;20049;-29
2023/09/18 06:09:54;;;;;;;3.40;2.90;;;19.10;87.50;;;;;;5031943;28;20737;-29
2023/09/18 06:12:21;;;;;;;3.67;3.30;;;19.30;77.60;;;;;;5032255;28;20133;-29
2023/09/18 06:14:48;;;;;;;3.40;3.10;;;20.00;88.10;;;;;;5032064;28;20216;-29
2023/09/18 06:17:16;;;;;;;3.35;3.05;;;20.80;78.30;;;;;;5031594;28;20128;-31
2023/09/18 06:19:43;;;;;;;3.42;3.13;;;;;;;;;;5032084;28;20132;-31
2023/09/18 06:22:10;;;;;;;3.50;3.13;;;19.70;88.00;;;;;;5032152;28;20137;-32
2023/09/18 06:24:37;;;;;;;3.55;3.15;;;;;;;;;;5031309;28;20124;-31
2023/09/18 06:27:05;;;;;;;3.40;3.10;;;20.80;88.60;;;;;;5031085;28;20129;-32
2023/09/18 06:29:31;;;;;;;3.35;2.88;;;19.70;87.70;;;;;;5028998;28;20053;-31
2023/09/18 06:31:58;;;;;;;3.40;2.70;;;21.00;88.80;;;;;;5029138;28;20057;-31
2023/09/18 06:34:26;;;;;;;4.32;2.88;;;20.10;71.30;;;;;;5031469;28;20133;-30
2023/09/18 06:36:53;;;;;;;3.35;3.00;;;;;;;;;;5030557;28;20049;-30
2023/09/18 06:39:22;;;;;;;3.70;3.10;;;19.70;88.60;;;;;;5031252;28;20190;-31
2023/09/18 06:41:48;;;;;;;3.22;2.58;;;20.90;88.90;;;;;;5031589;28;20053;-31
2023/09/18 06:44:16;;;;;;;4.32;3.10;;;;;;;;;;5031325;28;20124;-31
2023/09/18 06:46:42;;;;;;;3.53;3.22;;;20.90;88.70;;;;;;5031755;28;20051;-32
2023/09/18 06:49:09;;;;;;;3.30;3.00;;;;;;;;;;5023594;28;20117;-31
2023/09/18 06:51:37;;;;;;;3.95;3.30;;;20.60;88.60;;;;;;5025543;28;20132;-31
2023/09/18 06:54:04;;;;;;;3.50;3.20;;;20.30;89.20;;;;;;5031776;28;20080;-31
2023/09/18 06:56:31;;;;;;;3.55;3.00;;;;;;;;;;5043599;28;20143;-31
2023/09/18 06:58:58;;;;;;;3.28;2.97;;;20.20;88.40;;;;;;5023490;28;20124;-31
2023/09/18 07:01:25;;;;;;;4.20;2.70;;;20.40;89.10;;;;;;5030894;28;20133;-32
2023/09/18 07:03:52;;;;;;;5.55;3.20;;;19.80;86.10;;;;;;5031191;28;20052;-31
2023/09/18 07:06:20;;;;;;;4.40;3.10;;;19.70;84.30;;;;;;5030681;28;20484;-31
2023/09/18 07:08:49;;;;;;;4.00;3.13;;;20.10;72.00;;;;;;5031016;28;20046;-31
2023/09/18 07:11:16;;;;;;;4.22;3.10;;;20.00;88.60;;;;;;5028745;28;20080;-31
2023/09/18 07:13:43;;;;;;;4.25;3.03;;;20.40;88.80;;;;;;5031255;28;20120;-31
2023/09/18 07:16:10;;;;;;;5.28;3.10;;;19.20;88.70;;;;;;5026407;28;20498;-32
2023/09/18 07:18:36;;;;;;;3.88;3.38;;;19.80;75.90;;;;;;5028753;28;20574;-32
2023/09/18 07:21:03;;;;;;;3.80;3.38;;;19.90;88.70;;;;;;5029904;28;20064;-31
2023/09/18 07:23:30;;;;;;;3.88;3.17;;;19.70;89.10;;;;;;5029974;28;20125;-31
2023/09/18 07:25:58;;;;;;;4.68;3.00;;;20.50;75.90;;;;;;5012949;28;20141;-31
2023/09/18 07:28:25;;;;;;;4.57;3.15;;;20.10;76.30;;;;;;5011488;28;20479;-29
2023/09/18 07:30:51;;;;;;;3.55;2.90;;;19.80;88.70;;;;;;5016997;28;20112;-28
2023/09/18 07:33:19;;;;;;;3.58;3.17;;;19.70;88.90;;;;;;5027635;28;20451;-29
2023/09/18 07:35:48;;;;;;;3.85;3.08;;;20.20;89.20;;;;;;5030378;28;20072;-29
2023/09/18 07:38:14;;;;;;;4.50;3.17;;;20.00;89.10;;;;;;5029629;28;20049;-28
2023/09/18 07:40:42;;;;;;;4.80;3.25;;;21.10;82.00;;;;;;5034562;28;20072;-29
2023/09/18 07:47:24;;;;;;;6.43;3.58;;;;;;;;;;5033210;28;20131;-32
2023/09/18 07:49:51;;;;;;;5.43;3.30;;;;;;;;;;5035079;28;20148;-32
2023/09/18 07:52:18;;;;;;;5.15;3.33;;;20.40;86.50;;;;;;5034799;28;20128;-31
2023/09/18 07:54:44;;;;;;;3.78;3.20;;;19.30;89.10;;;;;;5034518;28;20087;-32
2023/09/18 07:57:11;;;;;;;5.45;2.95;;;20.20;89.20;;;;;;5035997;28;20125;-31
2023/09/18 07:59:39;;;;;;;5.68;3.60;;;20.30;82.70;;;;;;5031629;28;20125;-31
2023/09/18 08:02:07;;;;;;;5.13;3.15;;;20.90;89.40;;;;;;5034738;28;20056;-31
2023/09/18 08:04:33;;;;;;;5.43;3.33;;;20.00;89.20;;;;;;5034201;28;20095;-32
2023/09/18 08:07:01;;;;;;;4.03;3.30;;;;;;;;;;5034139;28;20051;-27
2023/09/18 08:09:29;;;;;;;4.53;3.20;;;20.40;89.30;;;;;;5034043;28;20042;-32
2023/09/18 08:11:56;;;;;;;4.20;3.30;;;20.20;89.10;;;;;;5034391;28;20050;-29
2023/09/18 08:14:23;;;;;;;5.68;3.10;;;20.00;89.60;;;;;;5034464;28;20057;-29
2023/09/18 08:16:57;;;;;;;5.30;3.20;;;19.40;88.60;;;;;;5034000;28;20080;-28
2023/09/18 08:19:26;;;;;;;4.22;2.92;;;19.80;89.10;;;;;;5034222;28;20052;-29
2023/09/18 08:21:54;;;;;;;5.57;3.50;;;19.40;81.70;;;;;;5034204;28;20055;-29
2023/09/18 08:24:21;;;;;;;4.00;2.95;;;;;;;;;;5033959;28;20071;-29
2023/09/18 08:26:48;;;;;;;3.65;3.03;;;20.40;88.80;;;;;;5033795;28;20060;-29
2023/09/18 08:29:15;;;;;;;4.85;3.22;;;20.30;77.20;;;;;;5033993;28;20137;-28
2023/09/18 08:31:41;;;;;;;4.60;3.20;;;20.20;89.10;;;;;;5034099;28;20136;-29
2023/09/18 08:34:09;;;;;;;3.92;2.90;;;20.20;72.00;;;;;;5034141;28;20128;-29
2023/09/18 08:36:36;;;;;;;4.28;3.05;;;19.80;88.80;;;;;;5033168;28;20128;-31
2023/09/18 08:39:05;;;;;;;5.20;3.20;;;19.80;79.40;;;;;;5032872;28;20045;-30
2023/09/18 08:41:32;;;;;;;3.75;2.92;;;19.30;84.30;;;;;;5033620;28;20399;-31
2023/09/18 08:44:01;;;;;;;3.95;3.10;;;20.20;72.10;;;;;;5033520;28;20132;-31
2023/09/18 08:46:28;;;;;;;4.68;3.03;;;19.90;89.10;;;;;;5031946;28;20120;-31
2023/09/18 08:48:54;;;;;;;3.58;2.92;;;21.20;79.10;;;;;;5032837;28;20124;-31
2023/09/18 08:51:22;;;;;;;4.40;2.70;;;20.20;71.80;;;;;;5032954;28;20120;-31
2023/09/18 08:53:49;;;;;;;3.78;3.00;;;;;;;;;;5033700;28;20167;-31
2023/09/18 08:56:16;;;;;;;4.35;2.92;;;20.30;88.20;;;;;;5044959;28;20124;-31
2023/09/18 08:58:43;;;;;;;3.83;2.90;;;20.10;88.10;;;;;;5037279;28;20124;-32
2023/09/18 09:01:09;;;;;;;5.00;2.60;;;21.10;76.90;;;;;;5033266;28;20148;-31
2023/09/18 09:03:36;;;;;;;4.28;3.10;;;20.70;88.80;;;;;;5033254;28;20053;-32
2023/09/18 09:06:03;;;;;;;4.45;3.00;;;20.60;87.80;;;;;;5033153;28;20045;-31
2023/09/18 09:08:31;;;;;;;3.97;2.80;;;19.90;78.70;;;;;;5032027;28;20125;-31
2023/09/18 09:10:58;;;;;;;4.30;2.92;;;21.50;77.60;;;;;;5032898;28;20124;-31
2023/09/18 09:13:26;;;;;;;4.80;2.80;;;;;;;;;;5031768;28;20494;-31
2023/09/18 09:15:55;;;;;;;5.55;2.85;;;21.40;88.40;;;;;;5032676;28;20046;-32
2023/09/18 09:18:22;;;;;;;3.63;2.83;;;;;;;;;;5032232;28;20410;-31
2023/09/18 09:20:57;;;;;;;5.18;2.85;;;20.60;87.80;;;;;;5029921;28;20132;-32
2023/09/18 09:23:24;;;;;;;3.65;2.80;;;20.30;75.00;;;;;;5032507;28;20430;-31
2023/09/18 09:25:53;;;;;;;3.72;2.80;;;20.40;87.90;;;;;;5031922;28;20136;-31
2023/09/18 09:28:29;;;;;;;4.32;2.90;;;20.30;87.10;;;;;;5028355;28;20491;-32
2023/09/18 09:31:02;;;;;;;3.55;2.95;;;21.60;71.30;;;;;;5029746;28;20081;-31
2023/09/18 09:33:29;;;;;;;4.20;3.10;;;21.40;87.70;;;;;;5032316;28;20487;-32
2023/09/18 09:35:56;;;;;;;4.63;3.00;;;;;;;;;;5016053;28;20050;-31
2023/09/18 09:38:31;;;;;;;4.00;2.83;;;21.00;88.30;;;;;;5031704;28;20057;-31
2023/09/18 09:41:00;;;;;;;3.42;2.95;;;20.40;87.40;;;;;;5030130;28;20092;-32
2023/09/18 09:43:27;;;;;;;2.88;2.53;;;;;;;;;;5032138;28;20041;-30
2023/09/18 09:45:58;;;;;;;3.60;3.00;;;20.70;87.30;;;;;;5029316;28;20560;-31
2023/09/18 09:48:25;;;;;;;3.78;2.70;;;21.00;87.50;;;;;;5032031;28;20053;-29
2023/09/18 09:50:55;;;;;;;4.53;2.97;;;20.90;87.50;;;;;;5032661;28;20068;-29
2023/09/18 09:53:24;;;;;;;7.28;3.17;;;20.80;87.30;;;;;;5032435;28;20053;-29
2023/09/18 09:55:55;;;;;;;5.35;3.08;;;20.60;70.90;;;;;;5032329;28;20565;-30
2023/09/18 09:58:26;;;;;;;3.75;3.10;;;21.40;87.90;;;;;;5031659;28;20473;-28
2023/09/18 10:00:55;;;;;;;4.38;3.05;;;21.10;73.60;;;;;;5025264;28;20137;-30
2023/09/18 10:03:21;;;;;;;5.30;3.10;;;20.90;78.20;;;;;;5016090;28;20049;-29
2023/09/18 10:05:51;;;;;;;4.97;2.95;;;19.00;70.10;;;;;;5032203;28;20128;-29
2023/09/18 10:08:19;;;;;;;4.95;2.78;;;21.10;87.40;;;;;;5030411;28;20053;-29
2023/09/18 10:10:47;;;;;;;5.00;3.17;;;21.10;73.20;;;;;;5022715;28;20494;-30
2023/09/18 10:13:18;;;;;;;4.50;2.90;;;20.90;87.60;;;;;;5018078;28;20410;-28
2023/09/18 10:15:46;;;;;;;3.25;2.70;;;21.10;88.60;;;;;;5032036;28;20049;-32
2023/09/18 10:18:18;;;;;;;3.83;3.10;;;20.60;87.40;;;;;;5020781;28;20046;-32
2023/09/18 10:20:45;;;;;;;4.70;2.90;;;21.30;88.20;;;;;;5028401;28;20045;-32
2023/09/18 10:23:23;;;;;;;4.28;2.83;;;20.50;78.50;;;;;;5031646;28;20410;-31
2023/09/18 10:25:50;;;;;;;4.90;2.75;;;20.50;87.20;;;;;;5023029;28;20060;-31
2023/09/18 10:28:17;;;;;;;5.82;3.08;;;20.80;88.30;;;;;;5020622;28;20475;-32
2023/09/18 10:30:44;;;;;;;3.78;2.95;;;;;;;;;;5031428;28;20124;-30
2023/09/18 10:33:13;;;;;;;3.85;2.67;;;20.40;87.20;;;;;;5031776;28;20132;-32
2023/09/18 10:35:40;;;;;;;3.80;2.95;;;20.60;71.10;;;;;;5031624;28;20042;-31
2023/09/18 10:38:06;;;;;;;4.35;3.08;;;20.70;76.20;;;;;;5031304;28;20132;-31
2023/09/18 10:40:34;;;;;;;4.15;2.90;;;;;;;;;;5032025;28;20132;-31
2023/09/18 10:43:01;;;;;;;2.95;2.60;;;;;;;;;;5031634;28;20081;-31
2023/09/18 10:45:27;;;;;;;4.22;3.03;;;19.60;86.70;;;;;;5031405;28;20132;-31
2023/09/18 10:47:54;;;;;;;5.45;3.03;;;21.70;88.00;;;;;;5031437;28;20156;-32
2023/09/18 10:50:25;;;;;;;4.15;2.92;;;19.80;76.60;;;;;;5031401;28;20124;-31
2023/09/18 10:52:52;;;;;;;3.08;2.50;;;20.90;87.50;;;;;;5015639;28;20045;-29
2023/09/18 10:55:19;;;;;;;5.97;3.15;;;;;;;;;;5031043;28;20140;-29
2023/09/18 10:57:52;;;;;;;4.32;3.30;;;20.50;88.10;;;;;;5030377;28;20128;-29
2023/09/18 11:00:22;;;;;;;4.97;3.20;;;;;;;;;;5028719;28;20502;-31
2023/09/18 11:02:50;;;;;;;5.78;3.17;;;20.60;87.30;;;;;;5021205;28;20045;-28
2023/09/18 11:05:31;;;;;;;4.45;3.22;;;20.60;87.90;;;;;;5015378;28;20051;-28
2023/09/18 11:08:26;;;;;;;5.10;3.45;;;19.70;75.80;;;;;;5027462;28;20132;-29
2023/09/18 11:10:59;;;;;;;7.38;3.47;;;19.80;83.70;;;;;;5027795;28;20414;-29
2023/09/18 11:13:29;;;;;;;6.32;3.97;;;20.50;75.70;;;;;;5023670;28;20057;-31
2023/09/18 11:16:01;;;;;;;7.40;3.65;;;19.80;86.80;;;;;;5023990;28;20487;-29
2023/09/18 11:18:33;;;;;;;6.15;4.13;;;19.80;86.70;;;;;;5025490;28;20049;-29
2023/09/18 11:21:11;;;;;;;8.07;3.35;;;20.90;73.70;;;;;;5033435;28;20128;-29
2023/09/18 11:23:42;;;;;;;7.00;3.70;;;20.90;71.10;;;;;;5035355;28;20141;-30
2023/09/18 11:26:09;;;;;;;7.57;3.78;;;20.60;87.30;;;;;;5024141;28;20104;-29
2023/09/18 11:28:37;;;;;;;5.35;3.20;;;;;;;;;;5015150;28;20554;-30
2023/09/18 11:31:03;;;;;;;7.90;3.97;;;20.60;87.10;;;;;;5033986;28;20072;-29
2023/09/18 11:33:31;;;;;;;5.70;3.35;;;20.70;82.70;;;;;;5034779;28;20136;-29
2023/09/18 11:35:58;;;;;;;5.38;3.40;;;;;;;;;;5034580;28;20068;-30
2023/09/18 11:38:26;;;;;;;5.20;3.17;;;20.90;71.00;;;;;;5034609;28;20132;-30
2023/09/18 11:40:53;;;;;;;5.15;3.65;;;20.80;74.10;;;;;;5035023;28;20056;-29
2023/09/18 11:43:29;;;;;;;8.07;3.30;;;19.80;86.70;;;;;;5034984;28;20132;-30
2023/09/18 11:45:56;;;;;;;4.38;3.38;;;20.40;87.60;;;;;;5034587;28;20068;-29
2023/09/18 11:48:25;;;;;;;5.93;2.95;;;20.60;87.00;;;;;;5034442;28;20132;-29
2023/09/18 11:50:52;;;;;;;3.95;3.17;;;21.80;88.60;;;;;;5034421;28;20505;-29
2023/09/18 11:53:19;;;;;;;5.57;3.13;;;21.70;78.50;;;;;;5034926;28;20136;-30
2023/09/18 11:55:47;;;;;;;5.53;2.90;;;21.10;87.30;;;;;;5041958;28;20045;-29
2023/09/18 11:58:14;;;;;;;6.18;3.10;;;20.90;73.30;;;;;;5035377;28;20124;-29
2023/09/18 12:00:46;;;;;;;6.28;2.92;;;21.20;80.10;;;;;;5034398;28;20132;-29
2023/09/18 12:03:24;;;;;;;5.00;2.95;;;21.30;85.70;;;;;;5034469;28;20499;-29
2023/09/18 12:05:55;;;;;;;4.32;2.67;;;22.00;83.10;;;;;;5034417;28;20514;-29
2023/09/18 12:08:22;;;;;;;3.90;2.97;;;21.00;88.00;;;;;;5033845;28;20132;-29
2023/09/18 12:10:51;;;;;;;5.38;3.00;;;21.00;71.00;;;;;;5034349;28;20136;-31
2023/09/18 12:13:18;;;;;;;3.38;2.67;;;20.20;87.50;;;;;;5034258;28;20045;-31
2023/09/18 12:15:44;;;;;;;3.42;2.70;;;21.10;87.00;;;;;;5034161;28;20521;-32
2023/09/18 12:18:12;;;;;;;4.57;2.92;;;21.00;70.70;;;;;;5033893;28;20125;-31
2023/09/18 12:20:41;;;;;;;4.00;2.70;;;;;;;;;;5034118;28;20057;-30
2023/09/18 12:23:08;;;;;;;4.30;2.97;;;21.40;87.80;;;;;;5033822;28;20061;-31
2023/09/18 12:25:35;;;;;;;3.42;2.63;;;21.20;87.80;;;;;;5033928;28;20124;-31
2023/09/18 12:28:04;;;;;;;3.47;2.55;;;21.10;70.50;;;;;;5033484;28;20137;-30
2023/09/18 12:30:31;;;;;;;4.15;2.53;;;21.10;86.70;;;;;;5034166;28;20054;-31
2023/09/18 12:32:59;;;;;;;5.65;2.85;;;21.10;77.80;;;;;;5033818;28;20060;-31
2023/09/18 12:35:29;;;;;;;3.47;2.45;;;;;;;;;;5033640;28;20411;-31
2023/09/18 12:37:56;;;;;;;3.63;2.42;;;21.00;73.10;;;;;;5032974;28;20495;-31
2023/09/18 12:40:24;;;;;;;4.38;2.58;;;21.20;70.40;;;;;;5033905;28;20096;-32
2023/09/18 12:42:51;;;;;;;3.15;2.40;;;22.00;87.40;;;;;;5033685;28;20056;-31
2023/09/18 12:45:19;;;;;;;3.92;2.60;;;21.30;87.50;;;;;;5013784;28;20129;-32
2023/09/18 12:47:46;;;;;;;3.75;2.42;;;;;;;;;;5019919;28;20128;-31
2023/09/18 12:50:13;;;;;;;5.15;2.50;;;22.00;87.00;;;;;;5033546;28;20136;-32
2023/09/18 12:52:41;;;;;;;4.90;2.90;;;;;;;;;;5033699;28;20148;-31
2023/09/18 12:55:08;;;;;;;2.97;2.30;;;21.00;86.60;;;;;;5035122;28;20133;-31
2023/09/18 12:57:35;;;;;;;5.43;2.78;;;21.90;87.40;;;;;;5053495;28;20111;-31
2023/09/18 13:00:10;;;;;;;3.33;2.33;;;21.00;87.00;;;;;;5053491;28;20128;-32
2023/09/18 13:02:39;;;;;;;4.45;2.80;;;22.30;87.20;;;;;;5053300;28;20056;-31
2023/09/18 13:05:07;;;;;;;3.28;2.50;;;21.10;87.00;;;;;;5035269;28;20416;-32
2023/09/18 13:07:44;;;;;;;3.80;2.63;;;21.60;83.80;;;;;;5032962;28;20076;-31
2023/09/18 13:10:11;;;;;;;3.30;2.42;;;;;;;;;;5033107;28;20049;-32
2023/09/18 13:12:41;;;;;;;3.00;2.33;;;20.80;86.50;;;;;;5033248;28;20075;-32